Time;durP1;ratioP1;P1;durP2;ratioP2;P2;SDS_P1;SDS_P2;PMS_P1;PMS_P2;Temp;Humidity;BMP_temperature;BMP_pressure;BME280_temperature;BME280_humidity;BME280_pressure;Samples;Min_cycle;Max_cycle;Signal;HPM_P1;HPM_P2
2023/06/27 00:01:39;;;;;;;6.68;4.10;;;;;;;17.20;82.89;93874.00;5085092;28;20025;-80
2023/06/27 00:04:09;;;;;;;9.45;3.83;;;;;;;17.12;83.25;93882.31;5085223;28;20026;-78
2023/06/27 00:06:40;;;;;;;6.65;4.32;;;;;;;17.09;82.97;93880.31;5085223;28;20053;-78
2023/06/27 00:09:08;;;;;;;10.13;4.40;;;;;;;16.99;82.53;93879.72;5085176;28;20032;-78
2023/06/27 00:11:34;;;;;;;7.07;4.65;;;;;;;17.03;82.05;93877.09;5085019;28;20106;-78
2023/06/27 00:14:00;;;;;;;7.47;4.35;;;;;;;17.08;82.17;93881.47;5084888;28;20346;-78
2023/06/27 00:16:32;;;;;;;9.35;4.18;;;;;;;17.11;82.58;93878.03;5084904;28;20040;-78
2023/06/27 00:19:02;;;;;;;10.27;4.72;;;;;;;17.13;83.25;93881.16;5084629;28;20061;-78
2023/06/27 00:21:28;;;;;;;10.85;4.40;;;;;;;17.17;83.38;93874.72;5084669;28;20302;-78
2023/06/27 00:23:56;;;;;;;11.77;5.32;;;;;;;17.19;83.44;93868.97;5100449;28;20047;-78
2023/06/27 00:26:22;;;;;;;6.60;4.60;;;;;;;17.16;83.42;93867.78;5084752;28;20032;-78
2023/06/27 00:28:47;;;;;;;7.05;4.43;;;;;;;17.20;82.49;93870.56;5084543;28;20024;-79
2023/06/27 00:31:12;;;;;;;6.68;4.05;;;;;;;17.26;82.39;93871.81;5084573;28;20100;-78
2023/06/27 00:33:38;;;;;;;8.57;4.60;;;;;;;17.30;82.39;93880.75;5084624;28;20023;-79
2023/06/27 00:36:05;;;;;;;9.52;3.90;;;;;;;17.35;81.84;93877.75;5084658;28;20081;-78
2023/06/27 00:38:31;;;;;;;7.50;4.13;;;;;;;17.35;81.56;93874.28;5084334;28;20020;-78
2023/06/27 00:40:57;;;;;;;10.57;4.90;;;;;;;17.30;81.94;93869.97;5084227;28;20307;-80
2023/06/27 00:43:23;;;;;;;6.32;3.90;;;;;;;17.30;81.53;93874.56;5084200;28;20025;-78
2023/06/27 00:45:49;;;;;;;6.15;3.78;;;;;;;17.30;81.24;93867.28;5066374;28;20103;-78
2023/06/27 00:48:15;;;;;;;6.97;4.30;;;;;;;17.35;80.12;93869.69;5066236;28;20028;-79
2023/06/27 00:50:43;;;;;;;10.07;4.25;;;;;;;17.30;80.05;93861.91;5083846;28;20048;-78
2023/06/27 00:53:11;;;;;;;7.95;4.32;;;;;;;17.27;80.15;93867.97;5066373;28;20032;-79
2023/06/27 00:55:39;;;;;;;7.55;4.13;;;;;;;17.31;79.57;93866.13;5084144;28;20024;-78
2023/06/27 00:58:09;;;;;;;8.85;3.72;;;;;;;17.36;78.68;93871.25;5066348;28;20032;-81
2023/06/27 01:00:35;;;;;;;5.63;3.53;;;;;;;17.33;78.63;93871.19;5083950;28;20031;-80
2023/06/27 01:03:02;;;;;;;11.10;3.80;;;;;;;17.29;78.80;93860.31;5083997;28;20051;-81
2023/06/27 01:05:28;;;;;;;8.88;3.85;;;;;;;17.27;78.91;93861.81;5083853;28;20043;-80
2023/06/27 01:08:17;;;;;;;8.63;3.55;;;;;;;17.23;79.37;93864.44;5083781;28;20074;-81
2023/06/27 01:10:45;;;;;;;6.82;3.30;;;;;;;17.23;79.28;93872.53;5065679;28;20043;-80
2023/06/27 01:13:20;;;;;;;7.43;3.80;;;;;;;17.21;79.06;93864.78;5083610;28;20031;-77
2023/06/27 01:15:46;;;;;;;11.05;3.90;;;;;;;17.20;79.34;93865.16;5065742;28;20248;-77
2023/06/27 01:18:13;;;;;;;10.27;3.85;;;;;;;17.22;79.62;93868.28;5065677;28;20032;-76
2023/06/27 01:20:39;;;;;;;7.72;4.30;;;;;;;17.19;79.93;93864.38;5083606;28;20043;-77
2023/06/27 01:23:26;;;;;;;7.43;4.07;;;;;;;17.12;80.49;93863.47;5083619;28;20093;-77
2023/06/27 01:26:04;;;;;;;9.45;4.28;;;;;;;17.13;81.22;93860.41;5065528;28;20016;-77
2023/06/27 01:28:30;;;;;;;9.90;4.57;;;;;;;17.13;81.58;93859.63;5083461;28;20012;-77
2023/06/27 01:30:56;;;;;;;7.38;4.28;;;;;;;17.12;81.87;93855.38;5083350;28;20329;-77
2023/06/27 01:33:29;;;;;;;11.75;4.50;;;;;;;17.09;82.25;93856.84;5083133;28;20024;-77
2023/06/27 01:36:11;;;;;;;7.90;3.70;;;;;;;17.08;83.08;93860.69;5083400;28;20027;-77
2023/06/27 01:39:02;;;;;;;10.63;4.00;;;;;;;17.04;83.37;93863.31;5083623;28;20083;-77
2023/06/27 01:41:31;;;;;;;6.57;4.32;;;;;;;16.97;83.59;93865.84;5083063;28;20318;-77
2023/06/27 01:44:01;;;;;;;13.25;4.18;;;;;;;16.95;83.45;93859.25;5083280;28;20024;-77
2023/06/27 01:46:27;;;;;;;8.40;4.22;;;;;;;16.88;83.95;93867.97;5083194;28;20032;-76
2023/06/27 01:49:08;;;;;;;8.45;4.53;;;;;;;16.87;83.67;93860.22;5082738;28;20052;-76
2023/06/27 01:51:33;;;;;;;8.43;4.30;;;;;;;16.83;83.41;93860.16;5080229;28;20036;-76
2023/06/27 01:53:59;;;;;;;7.78;4.57;;;;;;;16.79;83.24;93854.69;5081768;28;20032;-76
2023/06/27 01:56:24;;;;;;;10.00;4.35;;;;;;;16.80;82.96;93860.84;5081324;28;20024;-76
2023/06/27 01:58:50;;;;;;;7.95;4.28;;;;;;;16.77;83.12;93853.47;5065002;28;20198;-76
2023/06/27 02:01:16;;;;;;;10.18;3.95;;;;;;;16.74;83.72;93859.56;5082964;28;20218;-77
2023/06/27 02:03:41;;;;;;;9.38;4.15;;;;;;;16.69;83.76;93851.75;5083088;28;20036;-77
2023/06/27 02:06:07;;;;;;;6.97;3.88;;;;;;;16.68;84.00;93858.28;5083044;28;20096;-76
2023/06/27 02:08:32;;;;;;;10.82;4.45;;;;;;;16.65;84.42;93860.53;5082774;28;20088;-76
2023/06/27 02:10:58;;;;;;;7.28;3.60;;;;;;;16.61;84.51;93865.06;5083123;28;20325;-76
2023/06/27 02:13:24;;;;;;;17.40;4.88;;;;;;;16.61;84.93;93865.06;5082899;28;20012;-76
2023/06/27 02:15:49;;;;;;;11.35;4.70;;;;;;;16.61;84.90;93866.97;5082780;28;20039;-76
2023/06/27 02:18:15;;;;;;;10.68;4.32;;;;;;;16.55;84.93;93863.78;5082969;28;20020;-77
2023/06/27 02:20:40;;;;;;;8.80;4.40;;;;;;;16.54;85.11;93867.56;5082688;28;20048;-77
2023/06/27 02:23:06;;;;;;;8.90;4.15;;;;;;;16.52;84.87;93861.75;5087109;28;20248;-77
2023/06/27 02:25:31;;;;;;;9.55;4.38;;;;;;;16.47;85.34;93874.72;5087256;28;20268;-77
2023/06/27 02:27:56;;;;;;;7.18;4.18;;;;;;;16.46;84.94;93868.53;5087045;28;20028;-77
2023/06/27 02:30:22;;;;;;;6.97;4.38;;;;;;;16.47;85.21;93870.13;5086902;28;20024;-77
2023/06/27 02:32:47;;;;;;;11.20;4.63;;;;;;;16.43;85.44;93869.25;5068914;28;20027;-77
2023/06/27 02:35:15;;;;;;;7.78;4.55;;;;;;;16.43;85.04;93871.94;5086812;28;20043;-77
2023/06/27 02:37:41;;;;;;;10.65;5.30;;;;;;;16.42;85.09;93873.06;5086842;28;20027;-77
2023/06/27 02:40:08;;;;;;;13.50;5.25;;;;;;;16.43;85.14;93866.56;5086896;28;20043;-77
2023/06/27 02:42:33;;;;;;;13.50;4.53;;;;;;;16.40;84.80;93869.94;5086430;28;20020;-77
2023/06/27 02:44:59;;;;;;;11.15;4.57;;;;;;;16.41;84.66;93871.50;5086532;28;20033;-77
2023/06/27 02:47:24;;;;;;;8.70;5.20;;;;;;;16.41;83.57;93866.91;5086562;28;20025;-78
2023/06/27 02:49:50;;;;;;;10.07;4.85;;;;;;;16.38;83.92;93866.81;5086369;28;20045;-78
2023/06/27 02:52:15;;;;;;;10.40;5.32;;;;;;;16.41;83.56;93858.06;5086380;28;20016;-77
2023/06/27 02:54:41;;;;;;;6.65;4.32;;;;;;;16.44;83.07;93863.53;5086324;28;20031;-78
2023/06/27 02:57:06;;;;;;;10.15;5.22;;;;;;;16.46;83.03;93865.84;5086510;28;20019;-78
2023/06/27 02:59:32;;;;;;;13.38;4.90;;;;;;;16.45;83.01;93864.31;5068520;28;20020;-78
2023/06/27 03:01:57;;;;;;;7.57;4.68;;;;;;;16.46;81.91;93873.91;5086279;28;20095;-79
2023/06/27 03:04:24;;;;;;;9.63;4.43;;;;;;;16.48;81.95;93868.97;5086453;28;20027;-78
2023/06/27 03:06:50;;;;;;;16.70;5.28;;;;;;;16.51;81.62;93865.59;5068216;28;20021;-78
2023/06/27 03:09:19;;;;;;;6.35;4.75;;;;;;;16.51;81.99;93864.81;5068207;28;20090;-78
2023/06/27 03:11:45;;;;;;;10.90;6.00;;;;;;;16.52;82.25;93866.38;5086202;28;20047;-78
2023/06/27 03:14:10;;;;;;;11.80;5.30;;;;;;;16.56;82.73;93873.38;5086126;28;20226;-78
2023/06/27 03:16:36;;;;;;;8.48;5.43;;;;;;;16.53;82.75;93868.72;5086006;28;20016;-78
2023/06/27 03:19:02;;;;;;;9.95;4.88;;;;;;;16.61;83.42;93866.97;5086035;28;20021;-79
2023/06/27 03:21:27;;;;;;;13.70;5.15;;;;;;;16.62;83.30;93863.13;5085822;28;20070;-78
2023/06/27 03:23:52;;;;;;;6.93;4.63;;;;;;;16.65;83.60;93871.28;5068121;28;20034;-78
2023/06/27 03:26:22;;;;;;;9.52;5.95;;;;;;;16.69;83.64;93863.31;5085919;28;20021;-78
2023/06/27 03:28:48;;;;;;;12.13;6.45;;;;;;;16.68;83.79;93872.50;5085596;28;20024;-78
2023/06/27 03:31:13;;;;;;;7.00;5.00;;;;;;;16.73;84.03;93863.38;5067986;28;20360;-78
2023/06/27 03:33:39;;;;;;;13.77;6.10;;;;;;;16.73;84.19;93868.75;5085835;28;20134;-78
2023/06/27 03:36:05;;;;;;;11.98;6.25;;;;;;;16.75;84.25;93867.28;5085782;28;20025;-78
2023/06/27 03:38:30;;;;;;;10.38;5.90;;;;;;;16.78;84.50;93866.56;5085918;28;20030;-78
2023/06/27 03:40:56;;;;;;;10.38;6.00;;;;;;;16.79;84.85;93862.75;5085430;28;20024;-79
2023/06/27 03:43:23;;;;;;;10.55;6.07;;;;;;;16.80;85.13;93860.84;5067706;28;20024;-79
2023/06/27 03:45:49;;;;;;;15.05;6.43;;;;;;;16.88;85.17;93867.97;5085564;28;20024;-78
2023/06/27 03:48:14;;;;;;;10.00;6.05;;;;;;;16.93;85.15;93870.38;5067432;28;20020;-77
2023/06/27 03:50:40;;;;;;;14.55;6.95;;;;;;;16.99;85.15;93878.94;5085067;28;20051;-78
2023/06/27 03:53:05;;;;;;;14.82;6.32;;;;;;;17.07;85.52;93877.19;5085434;28;20214;-79
2023/06/27 03:55:32;;;;;;;17.27;6.95;;;;;;;17.09;85.85;93883.78;5085362;28;20020;-78
2023/06/27 03:57:58;;;;;;;15.23;7.50;;;;;;;17.18;86.08;93875.50;5085134;28;20017;-78
2023/06/27 04:00:24;;;;;;;13.95;8.38;;;;;;;17.26;86.17;93882.59;5085112;28;20090;-78
2023/06/27 04:02:49;;;;;;;18.92;7.60;;;;;;;17.32;86.32;93881.19;5085213;28;20086;-78
2023/06/27 04:05:15;;;;;;;12.45;7.90;;;;;;;17.38;86.56;93884.34;5085206;28;20044;-78
2023/06/27 04:07:41;;;;;;;19.33;8.80;;;;;;;17.44;86.41;93889.13;5067254;28;20082;-82
2023/06/27 04:10:07;;;;;;;12.50;8.20;;;;;;;17.48;86.46;93896.47;5085149;28;20021;-82
2023/06/27 04:12:32;;;;;;;11.90;7.45;;;;;;;17.54;86.26;93897.75;5084863;28;20024;-83
2023/06/27 04:14:58;;;;;;;13.32;8.27;;;;;;;17.62;86.03;93900.22;5084987;28;20349;-77
2023/06/27 04:17:23;;;;;;;19.77;7.93;;;;;;;17.69;85.33;93902.28;5084969;28;20020;-78
2023/06/27 04:19:49;;;;;;;15.50;7.32;;;;;;;17.73;85.61;93905.06;5084768;28;20057;-78
2023/06/27 04:22:14;;;;;;;15.02;7.65;;;;;;;17.81;84.90;93901.34;5066936;28;20024;-79
2023/06/27 04:24:40;;;;;;;12.82;7.55;;;;;;;17.84;84.39;93896.03;5084857;28;20020;-80
2023/06/27 04:27:08;;;;;;;17.27;7.35;;;;;;;17.86;81.81;93890.28;5084735;28;20024;-80
2023/06/27 04:29:34;;;;;;;14.68;8.05;;;;;;;17.83;81.70;93899.88;5084767;28;20016;-80
2023/06/27 04:32:00;;;;;;;16.98;7.85;;;;;;;17.89;81.79;93899.56;5084395;28;20031;-80
2023/06/27 04:34:25;;;;;;;11.43;7.15;;;;;;;17.92;80.95;93901.56;5066577;28;20048;-80
2023/06/27 04:36:51;;;;;;;17.20;7.00;;;;;;;17.90;80.48;93904.63;5084519;28;20263;-79
2023/06/27 04:39:16;;;;;;;14.88;7.45;;;;;;;17.93;80.92;93901.22;5084370;28;20310;-79
2023/06/27 04:41:41;;;;;;;16.02;8.25;;;;;;;17.97;81.20;93893.97;5066502;28;20094;-79
2023/06/27 04:44:07;;;;;;;17.85;8.43;;;;;;;17.99;81.61;93901.69;5084047;28;20089;-79
2023/06/27 04:46:32;;;;;;;14.35;7.90;;;;;;;18.02;81.65;93912.53;5084164;28;20096;-80
2023/06/27 04:48:58;;;;;;;14.35;8.05;;;;;;;18.04;81.33;93909.47;5084080;28;20037;-79
2023/06/27 04:51:26;;;;;;;14.02;8.25;;;;;;;18.08;80.88;93909.56;5084207;28;20017;-79
2023/06/27 04:53:52;;;;;;;19.08;8.43;;;;;;;18.11;81.28;93908.81;5084017;28;20020;-80
2023/06/27 04:56:18;;;;;;;13.25;7.90;;;;;;;18.09;81.01;93913.78;5083866;28;20023;-80
2023/06/27 04:58:43;;;;;;;23.40;9.80;;;;;;;18.10;82.28;93907.28;5083985;28;20066;-79
2023/06/27 05:01:09;;;;;;;17.35;9.15;;;;;;;18.11;82.86;93909.59;5084023;28;20223;-80
2023/06/27 05:03:37;;;;;;;22.65;8.77;;;;;;;18.21;82.96;93906.28;5084057;28;20050;-81
2023/06/27 05:06:03;;;;;;;16.75;8.60;;;;;;;18.27;81.76;93911.41;5065860;28;20023;-80
2023/06/27 05:08:29;;;;;;;20.05;8.95;;;;;;;18.26;81.45;93907.94;5083755;28;20016;-80
2023/06/27 05:10:54;;;;;;;20.33;9.55;;;;;;;18.22;81.71;93912.50;5083658;28;20012;-80
2023/06/27 05:13:20;;;;;;;14.95;9.25;;;;;;;18.32;82.01;93913.78;5083807;28;20092;-80
2023/06/27 05:15:45;;;;;;;21.67;9.85;;;;;;;18.42;81.83;93907.81;5083685;28;20040;-80
2023/06/27 05:18:12;;;;;;;13.15;8.70;;;;;;;18.46;81.89;93911.34;5083661;28;20020;-78
2023/06/27 05:20:37;;;;;;;16.92;8.90;;;;;;;18.58;80.90;93913.84;5083747;28;20047;-80
2023/06/27 05:23:05;;;;;;;19.10;8.70;;;;;;;18.71;78.91;93919.81;5065725;28;20095;-77
2023/06/27 05:25:31;;;;;;;20.40;9.82;;;;;;;18.75;78.14;93917.94;5083492;28;20036;-77
2023/06/27 05:27:57;;;;;;;16.98;9.13;;;;;;;18.75;78.48;93917.94;5083477;28;20314;-78
2023/06/27 05:30:23;;;;;;;19.33;9.88;;;;;;;18.78;78.27;93911.03;5083357;28;20020;-78
2023/06/27 05:32:48;;;;;;;20.60;9.20;;;;;;;18.80;77.74;93911.47;5065347;28;20028;-77
2023/06/27 05:35:14;;;;;;;19.73;8.88;;;;;;;18.84;78.52;93918.47;5083479;28;20020;-80
2023/06/27 05:37:39;;;;;;;21.38;9.23;;;;;;;18.88;78.05;93910.44;5065644;28;20052;-80
2023/06/27 05:40:05;;;;;;;16.23;9.20;;;;;;;18.95;78.82;93918.66;5065466;28;20032;-80
2023/06/27 05:42:31;;;;;;;15.55;10.13;;;;;;;19.06;79.12;93934.22;5083123;28;20024;-80
2023/06/27 05:44:56;;;;;;;20.00;9.40;;;;;;;19.18;77.53;93925.91;5083290;28;20372;-80
2023/06/27 05:47:22;;;;;;;16.35;9.10;;;;;;;19.20;76.24;93918.22;5083271;28;20279;-80
2023/06/27 05:49:48;;;;;;;21.05;10.10;;;;;;;19.19;76.24;93917.44;5082936;28;20078;-80
2023/06/27 05:52:14;;;;;;;21.23;9.35;;;;;;;19.24;77.32;93919.81;5083344;28;20009;-80
2023/06/27 05:54:41;;;;;;;19.55;10.25;;;;;;;19.31;77.06;93918.34;5065101;28;20222;-80
2023/06/27 05:57:07;;;;;;;18.77;9.95;;;;;;;19.34;76.51;93914.94;5064483;28;20025;-82
2023/06/27 05:59:32;;;;;;;18.05;9.93;;;;;;;19.37;75.12;93925.75;5083083;28;20062;-82
2023/06/27 06:01:58;;;;;;;14.75;9.52;;;;;;;19.40;74.86;93919.63;5082995;28;20323;-81
2023/06/27 06:04:23;;;;;;;16.45;10.30;;;;;;;19.42;76.62;93925.44;5082935;28;20016;-81
2023/06/27 06:06:48;;;;;;;19.58;10.45;;;;;;;19.54;75.84;93937.16;5082876;28;20016;-82
2023/06/27 06:09:14;;;;;;;30.92;10.48;;;;;;;19.57;76.41;93928.31;5083087;28;20017;-81
2023/06/27 06:11:39;;;;;;;17.55;10.20;;;;;;;19.67;75.24;93922.25;5082921;28;20249;-83
2023/06/27 06:14:05;;;;;;;17.00;10.27;;;;;;;19.72;73.68;93930.09;5082945;28;20063;-83
2023/06/27 06:16:34;;;;;;;19.67;10.02;;;;;;;19.75;74.23;93921.22;5082604;28;20022;-82
2023/06/27 06:19:00;;;;;;;29.63;10.73;;;;;;;19.84;74.84;93929.84;5065113;28;20308;-83
2023/06/27 06:21:27;;;;;;;14.20;9.80;;;;;;;19.90;72.74;93922.16;5082828;28;20104;-79
2023/06/27 06:23:53;;;;;;;17.75;9.50;;;;;;;19.91;71.40;93922.94;5082442;28;20028;-78
2023/06/27 06:26:18;;;;;;;18.27;8.57;;;;;;;20.00;71.86;93929.59;5082661;28;20047;-76
2023/06/27 06:28:43;;;;;;;22.17;9.25;;;;;;;20.11;71.29;93920.81;5064673;28;20028;-77
2023/06/27 06:31:14;;;;;;;17.25;8.48;;;;;;;20.12;70.95;93933.97;5082645;28;20310;-77
2023/06/27 06:33:40;;;;;;;13.25;7.93;;;;;;;20.12;69.65;93928.56;5082534;28;20039;-77
2023/06/27 06:36:06;;;;;;;18.13;7.97;;;;;;;20.22;69.99;93919.00;5082529;28;20048;-79
2023/06/27 06:38:32;;;;;;;21.40;8.57;;;;;;;20.33;68.71;93917.16;5082443;28;20029;-78
2023/06/27 06:40:57;;;;;;;11.90;7.05;;;;;;;20.27;67.82;93912.44;5082345;28;20222;-78
2023/06/27 06:43:26;;;;;;;14.70;7.28;;;;;;;20.38;68.71;93911.41;5082158;28;20111;-76
2023/06/27 06:45:52;;;;;;;16.60;7.03;;;;;;;20.54;69.31;93911.16;5082364;28;20035;-76
2023/06/27 06:48:19;;;;;;;15.90;7.30;;;;;;;20.64;67.68;93913.19;5082179;28;20024;-78
2023/06/27 06:50:45;;;;;;;14.82;7.45;;;;;;;20.69;65.86;93905.88;5064431;28;20024;-78
2023/06/27 06:53:10;;;;;;;16.92;7.38;;;;;;;20.68;66.39;93910.53;5064521;28;20043;-78
2023/06/27 06:55:36;;;;;;;22.92;7.00;;;;;;;20.68;66.87;93912.44;5082495;28;20311;-79
2023/06/27 06:58:01;;;;;;;15.70;7.07;;;;;;;20.69;67.31;93900.44;5082226;28;20023;-78
2023/06/27 07:00:27;;;;;;;13.57;6.95;;;;;;;20.77;68.15;93907.47;5081960;28;20017;-76
2023/06/27 07:02:53;;;;;;;14.18;6.70;;;;;;;20.90;67.34;93895.16;5082135;28;20047;-78
2023/06/27 07:05:18;;;;;;;20.58;7.28;;;;;;;21.01;69.15;93908.78;5082158;28;20025;-79
2023/06/27 07:07:44;;;;;;;11.40;6.38;;;;;;;21.03;65.77;93907.25;5083849;28;20220;-77
2023/06/27 07:10:09;;;;;;;11.70;6.65;;;;;;;21.12;66.84;93898.78;5068117;28;20024;-78
2023/06/27 07:12:35;;;;;;;9.93;6.25;;;;;;;21.15;65.63;93908.09;5085883;28;20225;-76
2023/06/27 07:15:00;;;;;;;15.65;7.15;;;;;;;21.20;66.43;93905.03;5085967;28;20024;-77
2023/06/27 07:17:26;;;;;;;16.88;6.45;;;;;;;21.31;66.87;93899.66;5068145;28;20032;-76
2023/06/27 07:19:53;;;;;;;11.10;6.05;;;;;;;21.41;65.62;93902.44;5085761;28;20021;-77
2023/06/27 07:22:18;;;;;;;18.73;6.18;;;;;;;21.44;65.23;93901.69;5067817;28;20200;-78
2023/06/27 07:24:43;;;;;;;16.33;6.85;;;;;;;21.54;64.50;93899.41;5067780;28;20035;-78
2023/06/27 07:27:09;;;;;;;19.45;6.22;;;;;;;21.68;64.59;93901.41;5067858;28;20024;-78
2023/06/27 07:29:35;;;;;;;13.48;6.00;;;;;;;21.65;64.00;93900.22;5085581;28;20051;-79
2023/06/27 07:32:01;;;;;;;16.00;6.30;;;;;;;21.63;62.60;93897.88;5085233;28;20028;-78
2023/06/27 07:34:27;;;;;;;18.08;6.30;;;;;;;21.69;63.70;93897.50;5085286;28;20023;-77
2023/06/27 07:36:52;;;;;;;14.18;6.50;;;;;;;21.73;64.34;93906.44;5067541;28;20017;-77
2023/06/27 07:39:17;;;;;;;10.43;6.10;;;;;;;21.70;62.23;93899.09;5085380;28;20043;-78
2023/06/27 07:41:43;;;;;;;13.65;6.20;;;;;;;21.75;63.06;93898.69;5085013;28;20091;-78
2023/06/27 07:44:09;;;;;;;12.50;5.72;;;;;;;21.81;62.57;93914.22;5085533;28;20063;-77
2023/06/27 07:46:34;;;;;;;14.27;5.78;;;;;;;21.78;62.97;93904.13;5067630;28;20031;-78
2023/06/27 07:49:00;;;;;;;11.32;5.55;;;;;;;21.88;62.85;93907.25;5085042;28;20037;-81
2023/06/27 07:51:26;;;;;;;10.88;5.90;;;;;;;21.95;62.03;93912.72;5085063;28;20012;-77
2023/06/27 07:53:52;;;;;;;17.63;6.50;;;;;;;21.91;61.76;93906.50;5085243;28;20082;-77
2023/06/27 07:56:19;;;;;;;10.05;5.80;;;;;;;21.99;62.58;93908.06;5085104;28;20017;-77
2023/06/27 07:58:44;;;;;;;11.48;5.68;;;;;;;22.00;61.27;93902.25;5085068;28;20022;-77
2023/06/27 11:00:34;;;;;;;8.85;3.42;;;;;;;25.89;33.62;93857.38;4602414;31;20067;-89
2023/06/27 11:03:03;;;;;;;7.65;3.72;;;;;;;25.95;35.23;93853.84;4586073;31;20112;-88
2023/06/27 11:05:43;;;;;;;6.03;3.28;;;;;;;26.00;33.00;93853.34;4593174;31;20091;-89
2023/06/27 11:08:13;;;;;;;4.75;3.17;;;;;;;26.00;31.39;93856.09;4628576;31;20050;-89
2023/06/27 11:10:52;;;;;;;4.28;3.00;;;;;;;26.01;33.42;93851.41;4671799;30;20054;-88
2023/06/27 11:13:26;;;;;;;4.43;2.78;;;;;;;26.13;31.54;93847.31;4684567;30;20045;-89
2023/06/27 11:15:52;;;;;;;5.40;2.95;;;;;;;26.14;33.63;93836.00;4698063;30;20128;-89
2023/06/27 11:18:19;;;;;;;14.38;3.47;;;;;;;26.27;34.34;93847.09;4710837;30;20042;-90
2023/06/27 11:20:45;;;;;;;5.68;3.30;;;;;;;26.33;33.05;93839.22;4756744;30;20044;-90
2023/06/27 11:23:14;;;;;;;7.70;3.13;;;;;;;26.37;34.29;93839.94;4792244;29;20053;-89
2023/06/27 11:25:48;;;;;;;10.30;3.75;;;;;;;26.42;33.80;93844.94;4834048;29;20039;-88
2023/06/27 11:28:18;;;;;;;7.28;3.55;;;;;;;26.48;34.74;93837.81;4872168;29;20406;-88
2023/06/27 11:30:44;;;;;;;5.20;3.15;;;;;;;26.37;35.00;93834.47;4899195;29;20092;-88
2023/06/27 11:33:12;;;;;;;6.72;3.63;;;;;;;26.34;34.95;93827.88;4914167;29;20040;-88
2023/06/27 11:35:40;;;;;;;7.18;3.15;;;;;;;26.43;34.60;93832.81;4943683;29;20050;-88
2023/06/27 11:38:07;;;;;;;6.32;2.95;;;;;;;26.46;32.18;93817.53;4955792;29;20038;-88
2023/06/27 11:40:33;;;;;;;5.65;3.35;;;;;;;26.56;32.73;93824.78;4967540;29;20023;-87
2023/06/27 11:43:06;;;;;;;6.47;2.88;;;;;;;26.70;31.08;93815.59;4967306;29;20062;-88
2023/06/27 11:45:32;;;;;;;10.23;3.40;;;;;;;26.63;31.82;93826.69;4967532;28;20038;-88
2023/06/27 11:48:01;;;;;;;5.70;3.22;;;;;;;26.65;32.48;93816.88;4967607;29;20019;-88
2023/06/27 11:50:28;;;;;;;5.97;3.30;;;;;;;26.64;31.63;93815.31;4967429;29;20070;-87
2023/06/27 11:52:57;;;;;;;8.55;4.50;;;;;;;26.71;33.53;93820.66;4966976;28;20038;-87
2023/06/27 11:55:23;;;;;;;8.18;3.13;;;;;;;26.84;31.56;93818.09;4966506;28;20078;-87
2023/06/27 11:57:54;;;;;;;7.53;3.20;;;;;;;26.94;29.57;93808.16;4998334;28;20224;-87
2023/06/27 12:00:28;;;;;;;6.78;2.70;;;;;;;26.97;29.27;93804.59;4967088;29;20055;-87
2023/06/27 12:02:56;;;;;;;6.55;3.20;;;;;;;27.08;31.60;93813.34;4966907;29;20027;-87
2023/06/27 12:05:24;;;;;;;8.82;2.88;;;;;;;27.24;31.24;93800.97;4967044;28;20047;-87
2023/06/27 12:08:04;;;;;;;9.82;3.58;;;;;;;27.45;32.01;93795.06;4965980;29;20030;-86
2023/06/27 12:10:34;;;;;;;8.15;3.67;;;;;;;27.62;31.65;93809.56;4966866;28;20029;-87
2023/06/27 12:13:03;;;;;;;5.22;2.88;;;;;;;27.65;28.81;93799.75;4966840;28;20054;-87
2023/06/27 12:15:29;;;;;;;4.45;2.53;;;;;;;27.68;29.51;93794.19;4966797;29;20031;-87
2023/06/27 12:17:59;;;;;;;4.47;3.20;;;;;;;27.72;29.42;93803.09;4966645;28;20046;-87
2023/06/27 12:20:26;;;;;;;6.40;3.50;;;;;;;28.03;30.78;93789.13;4966866;29;20074;-87
2023/06/27 12:22:52;;;;;;;5.68;2.70;;;;;;;28.14;31.20;93794.34;4966589;29;20031;-88
2023/06/27 12:25:17;;;;;;;5.15;3.22;;;;;;;28.29;29.75;93787.34;4966685;29;20038;-87
2023/06/27 12:27:43;;;;;;;10.55;3.28;;;;;;;28.52;29.73;93789.16;4966604;29;20324;-87
2023/06/27 12:30:10;;;;;;;5.78;3.45;;;;;;;28.67;30.05;93783.31;4997836;28;20029;-87
2023/06/27 12:32:37;;;;;;;5.43;3.20;;;;;;;28.69;29.39;93778.16;4997805;28;20026;-87
2023/06/27 12:35:03;;;;;;;13.63;3.83;;;;;;;28.68;30.07;93776.59;4966505;29;20143;-87
2023/06/27 12:37:33;;;;;;;4.53;2.88;;;;;;;28.69;30.11;93769.94;4966635;29;20023;-87
2023/06/27 12:39:58;;;;;;;4.15;2.85;;;;;;;28.73;29.37;93767.88;4966345;28;20054;-87
2023/06/27 12:42:24;;;;;;;6.57;2.58;;;;;;;29.00;30.47;93765.56;4966082;28;20095;-87
2023/06/27 12:44:54;;;;;;;5.75;3.53;;;;;;;29.25;30.31;93768.84;4997433;28;20027;-88
2023/06/27 12:47:20;;;;;;;6.10;3.30;;;;;;;29.42;30.24;93770.31;4966288;28;20022;-88
2023/06/27 12:49:45;;;;;;;6.60;3.53;;;;;;;29.42;29.80;93766.81;4966452;29;20027;-87
2023/06/27 12:52:11;;;;;;;13.05;3.72;;;;;;;29.50;32.03;93768.13;4966050;29;20031;-87
2023/06/27 12:54:39;;;;;;;11.27;4.43;;;;;;;29.65;31.13;93763.75;4966024;29;20309;-88
2023/06/27 12:57:04;;;;;;;9.07;3.25;;;;;;;29.76;29.46;93771.72;4966070;29;20049;-87
2023/06/27 12:59:30;;;;;;;8.30;3.72;;;;;;;29.65;30.36;93763.75;4965724;29;20027;-87
2023/06/27 13:01:57;;;;;;;5.82;3.13;;;;;;;29.66;30.35;93750.81;4965780;29;20277;-87
2023/06/27 13:04:23;;;;;;;7.68;4.07;;;;;;;29.76;29.98;93750.50;4965689;28;20034;-87
2023/06/27 13:06:49;;;;;;;7.10;3.45;;;;;;;29.70;30.08;93743.22;4965473;29;20027;-87
2023/06/27 13:09:15;;;;;;;8.00;3.08;;;;;;;29.94;30.43;93743.66;4966243;28;20023;-87
2023/06/27 13:11:40;;;;;;;15.73;3.33;;;;;;;30.26;29.83;93755.63;4965994;29;20103;-87
2023/06/27 13:14:06;;;;;;;10.35;3.50;;;;;;;30.43;29.93;93748.81;4965726;29;20019;-87
2023/06/27 13:16:31;;;;;;;10.00;3.70;;;;;;;30.47;29.17;93751.41;4965468;28;20042;-86
2023/06/27 13:18:57;;;;;;;4.88;3.08;;;;;;;30.89;28.20;93748.47;4980590;28;20015;-87
2023/06/27 13:21:22;;;;;;;10.73;3.83;;;;;;;31.19;27.73;93749.75;4965778;29;20392;-87
2023/06/27 13:23:48;;;;;;;6.13;3.00;;;;;;;31.74;28.14;93747.31;4965494;29;20019;-86
2023/06/27 13:26:14;;;;;;;7.80;3.33;;;;;;;32.19;26.85;93743.22;4965617;29;20027;-87
2023/06/27 13:28:39;;;;;;;8.55;3.08;;;;;;;32.36;27.04;93745.69;4965486;29;20343;-87
2023/06/27 13:31:05;;;;;;;6.47;3.45;;;;;;;32.85;26.58;93753.16;4996412;28;20089;-87
2023/06/27 13:33:31;;;;;;;5.07;2.95;;;;;;;33.29;28.04;93739.03;4996431;28;20376;-87
2023/06/27 13:35:56;;;;;;;8.25;2.92;;;;;;;33.71;23.83;93745.88;4965343;29;20026;-87
2023/06/27 13:38:23;;;;;;;7.20;2.78;;;;;;;33.89;24.46;93745.00;4965347;29;20018;-87
2023/06/27 13:40:48;;;;;;;4.13;2.75;;;;;;;33.87;23.87;93736.41;4964969;29;20042;-87
2023/06/27 13:43:14;;;;;;;6.47;3.88;;;;;;;33.80;26.10;93739.53;4965483;29;20031;-87
2023/06/27 13:45:40;;;;;;;12.95;3.65;;;;;;;33.61;27.83;93742.34;4965298;29;20030;-88
2023/06/27 13:48:06;;;;;;;5.75;3.15;;;;;;;33.01;28.07;93738.25;4965424;28;20027;-87
2023/06/27 13:50:31;;;;;;;7.32;3.95;;;;;;;32.67;29.00;93734.59;4965087;29;20324;-87
2023/06/27 13:52:58;;;;;;;23.17;3.85;;;;;;;33.29;27.83;93735.50;4965182;28;20026;-87
2023/06/27 13:55:51;;;;;;;12.68;3.72;;;;;;;33.85;26.25;93730.59;5080447;28;20382;-86
2023/06/27 13:58:17;;;;;;;8.10;4.03;;;;;;;33.31;26.43;93731.03;5080748;28;20316;-86
2023/06/27 14:00:47;;;;;;;8.82;3.53;;;;;;;32.71;27.55;93724.19;5080487;28;20028;-87
2023/06/27 14:03:13;;;;;;;6.45;2.88;;;;;;;32.43;28.17;93728.88;5080466;28;20052;-87
2023/06/27 14:05:39;;;;;;;11.48;4.25;;;;;;;32.95;27.67;93718.03;5080179;28;20036;-87
2023/06/27 14:08:04;;;;;;;7.90;3.15;;;;;;;33.94;26.17;93720.25;5078986;28;20028;-87
2023/06/27 14:10:30;;;;;;;9.52;3.20;;;;;;;34.07;25.10;93714.50;5080332;28;20029;-87
2023/06/27 14:12:56;;;;;;;4.25;2.92;;;;;;;34.30;23.94;93709.53;5080226;28;20025;-87
2023/06/27 14:15:23;;;;;;;9.30;3.40;;;;;;;35.22;23.41;93711.59;5078684;28;20067;-87
2023/06/27 14:17:49;;;;;;;5.05;3.35;;;;;;;36.30;21.57;93705.75;5079997;28;20031;-87
2023/06/27 14:20:15;;;;;;;6.68;3.50;;;;;;;37.25;20.61;93708.91;5079995;28;20083;-86
2023/06/27 14:22:40;;;;;;;9.80;3.22;;;;;;;37.73;20.36;93700.00;5078768;28;20033;-87
2023/06/27 14:25:07;;;;;;;5.22;3.30;;;;;;;37.91;19.24;93704.41;5079758;28;20087;-87
2023/06/27 14:27:35;;;;;;;4.20;2.80;;;;;;;37.92;20.16;93699.59;5078780;28;20021;-86